Time;durP1;ratioP1;P1;durP2;ratioP2;P2;SDS_P1;SDS_P2;PMS_P1;PMS_P2;Temp;Humidity;BMP_temperature;BMP_pressure;BME280_temperature;BME280_humidity;BME280_pressure;Samples;Min_cycle;Max_cycle;Signal;HPM_P1;HPM_P2
2023/10/25 00:00:44;;;;;;;9.47;3.30;;;9.20;99.90;;;;;;5096359;28;20216;-76
2023/10/25 00:03:12;;;;;;;12.13;3.40;;;9.20;99.90;;;;;;5094847;28;20208;-76
2023/10/25 00:05:37;;;;;;;5.33;3.43;;;9.20;99.90;;;;;;5094180;28;20179;-76
2023/10/25 00:08:03;;;;;;;7.30;3.57;;;9.20;99.90;;;;;;5095130;28;20649;-76
2023/10/25 00:10:29;;;;;;;12.77;3.70;;;9.20;99.90;;;;;;5094352;28;20189;-76
2023/10/25 00:12:54;;;;;;;11.47;4.07;;;9.20;99.90;;;;;;5094973;28;20167;-76
2023/10/25 00:15:21;;;;;;;8.87;3.63;;;9.10;99.90;;;;;;5094939;28;20652;-76
2023/10/25 00:17:47;;;;;;;8.53;4.57;;;9.10;99.90;;;;;;5093589;28;20163;-76
2023/10/25 00:20:13;;;;;;;6.50;3.60;;;9.10;99.90;;;;;;5095009;28;20276;-76
2023/10/25 00:22:39;;;;;;;7.80;4.00;;;9.10;99.90;;;;;;5093665;28;20709;-76
2023/10/25 00:25:04;;;;;;;10.00;4.13;;;9.10;99.90;;;;;;5094698;28;20198;-76
2023/10/25 00:27:30;;;;;;;10.97;3.93;;;9.10;99.90;;;;;;5093451;28;20182;-76
2023/10/25 00:29:55;;;;;;;7.10;3.70;;;9.10;99.90;;;;;;5095272;28;20190;-76
2023/10/25 00:32:21;;;;;;;7.23;4.00;;;9.00;99.90;;;;;;5094614;28;20258;-76
2023/10/25 00:34:46;;;;;;;5.13;3.90;;;9.00;99.90;;;;;;5094574;28;20799;-76
2023/10/25 00:37:12;;;;;;;6.57;3.40;;;9.00;99.90;;;;;;5094518;28;20249;-76
2023/10/25 00:39:37;;;;;;;7.27;4.07;;;9.00;99.90;;;;;;5093593;28;20227;-76
2023/10/25 00:42:03;;;;;;;8.30;4.20;;;9.00;99.90;;;;;;5093416;28;20266;-76
2023/10/25 00:44:29;;;;;;;10.93;4.30;;;9.00;99.90;;;;;;5094408;28;20264;-76
2023/10/25 00:46:55;;;;;;;12.10;3.90;;;9.00;99.90;;;;;;5093118;28;20617;-76
2023/10/25 00:49:20;;;;;;;11.30;3.70;;;9.00;99.90;;;;;;5093543;28;20268;-76
2023/10/25 00:51:46;;;;;;;9.13;3.90;;;8.90;99.90;;;;;;5092944;28;20182;-76
2023/10/25 00:54:13;;;;;;;7.30;3.90;;;8.90;99.90;;;;;;5094300;28;20186;-76
2023/10/25 00:56:39;;;;;;;6.80;4.23;;;8.90;99.90;;;;;;5094431;28;20166;-76
2023/10/25 00:59:06;;;;;;;5.47;4.43;;;8.80;99.90;;;;;;5092780;28;20192;-76
2023/10/25 01:01:33;;;;;;;7.53;4.57;;;8.80;99.90;;;;;;5094034;28;20171;-77
2023/10/25 01:03:58;;;;;;;11.27;4.03;;;8.80;99.90;;;;;;5092542;28;20194;-76
2023/10/25 01:06:24;;;;;;;5.87;4.17;;;8.80;99.90;;;;;;5093976;28;20652;-76
2023/10/25 01:08:51;;;;;;;5.20;4.30;;;8.80;99.90;;;;;;5094017;28;20196;-76
2023/10/25 01:11:16;;;;;;;9.03;4.23;;;8.70;99.90;;;;;;5092508;28;20642;-76
2023/10/25 01:13:42;;;;;;;6.30;3.70;;;8.80;99.90;;;;;;5093789;28;20193;-76
2023/10/25 01:16:07;;;;;;;12.07;4.27;;;8.70;99.90;;;;;;5093693;28;20194;-75
2023/10/25 01:18:33;;;;;;;9.33;4.00;;;8.80;99.90;;;;;;5093392;28;20176;-76
2023/10/25 01:20:58;;;;;;;7.07;4.10;;;8.70;99.90;;;;;;5092992;28;20189;-76
2023/10/25 01:23:24;;;;;;;8.57;3.73;;;8.70;99.90;;;;;;5093523;28;20243;-76
2023/10/25 01:25:49;;;;;;;9.77;4.53;;;8.70;99.90;;;;;;5093504;28;20173;-76
2023/10/25 01:28:15;;;;;;;4.93;4.20;;;8.70;99.90;;;;;;5092136;28;20213;-76
2023/10/25 01:30:41;;;;;;;7.73;4.23;;;8.70;99.90;;;;;;5093768;28;20201;-76
2023/10/25 01:33:07;;;;;;;8.17;4.77;;;8.70;99.90;;;;;;5093383;28;20182;-76
2023/10/25 01:35:34;;;;;;;6.67;3.90;;;8.70;99.90;;;;;;5085884;28;20210;-76
2023/10/25 01:38:00;;;;;;;6.60;3.97;;;8.70;99.90;;;;;;5071491;28;20178;-76
2023/10/25 01:40:25;;;;;;;7.13;4.30;;;8.70;99.90;;;;;;5072730;28;20239;-76
2023/10/25 01:42:53;;;;;;;12.87;4.20;;;8.70;99.90;;;;;;5072769;28;20216;-76
2023/10/25 01:45:19;;;;;;;5.33;4.13;;;8.70;99.90;;;;;;5072684;28;20197;-76
2023/10/25 01:47:44;;;;;;;7.87;4.20;;;8.70;99.90;;;;;;5071374;28;20658;-76
2023/10/25 01:50:10;;;;;;;9.97;4.53;;;8.70;99.90;;;;;;5071368;28;20219;-76
2023/10/25 01:52:36;;;;;;;7.53;4.37;;;8.70;99.90;;;;;;5072596;28;20595;-76
2023/10/25 01:55:01;;;;;;;7.83;4.33;;;8.70;99.90;;;;;;5071072;28;20222;-76
2023/10/25 01:57:27;;;;;;;7.63;4.53;;;8.70;99.90;;;;;;5072661;28;20175;-76
2023/10/25 01:59:53;;;;;;;12.03;5.30;;;8.70;99.90;;;;;;5071308;28;20179;-76
2023/10/25 02:02:18;;;;;;;10.93;4.00;;;8.70;99.90;;;;;;5071340;28;20232;-76
2023/10/25 02:04:44;;;;;;;5.97;4.10;;;8.70;99.90;;;;;;5072315;28;20206;-76
2023/10/25 02:07:10;;;;;;;5.97;4.20;;;8.70;99.90;;;;;;5072457;28;20175;-76
2023/10/25 02:09:35;;;;;;;9.17;4.27;;;8.70;99.90;;;;;;5072567;28;20547;-76
2023/10/25 02:12:01;;;;;;;6.77;4.27;;;8.70;99.90;;;;;;5092697;28;20205;-75
2023/10/25 02:14:26;;;;;;;7.90;5.03;;;8.70;99.90;;;;;;5091019;28;20228;-76
2023/10/25 02:16:52;;;;;;;7.10;4.30;;;8.70;99.90;;;;;;5082997;28;20551;-76
2023/10/25 02:19:19;;;;;;;9.77;4.27;;;8.60;99.90;;;;;;5071039;28;20228;-76
2023/10/25 02:21:45;;;;;;;7.90;4.30;;;8.60;99.90;;;;;;5072491;28;20250;-76
2023/10/25 02:24:12;;;;;;;9.03;4.90;;;8.60;99.90;;;;;;5070739;28;20281;-76
2023/10/25 02:26:37;;;;;;;5.70;4.60;;;8.70;99.90;;;;;;5072210;28;20573;-76
2023/10/25 02:29:03;;;;;;;10.10;4.33;;;8.60;99.90;;;;;;5070809;28;20214;-76
2023/10/25 02:31:28;;;;;;;8.73;4.43;;;8.60;99.90;;;;;;5070850;28;20202;-76
2023/10/25 02:33:54;;;;;;;9.47;4.83;;;8.60;99.90;;;;;;5070064;28;20259;-76
2023/10/25 02:36:20;;;;;;;5.87;4.40;;;8.60;99.90;;;;;;5072073;28;20611;-76
2023/10/25 02:38:48;;;;;;;12.57;5.20;;;8.60;99.90;;;;;;5072127;28;20651;-77
2023/10/25 02:41:14;;;;;;;7.87;4.57;;;8.60;99.90;;;;;;5075081;28;20178;-76
2023/10/25 02:43:40;;;;;;;8.67;4.37;;;8.60;99.90;;;;;;5092316;28;20780;-76
2023/10/25 02:46:08;;;;;;;15.90;5.17;;;8.60;99.90;;;;;;5090306;28;21030;-76
2023/10/25 02:48:33;;;;;;;9.57;4.67;;;8.60;99.90;;;;;;5092144;28;20606;-76
2023/10/25 02:51:00;;;;;;;10.37;4.43;;;8.60;99.90;;;;;;5090896;28;20298;-77
2023/10/25 02:53:25;;;;;;;10.77;4.67;;;8.60;99.90;;;;;;5092181;28;20378;-76
2023/10/25 02:55:57;;;;;;;8.60;5.00;;;8.60;99.90;;;;;;5075919;28;20700;-76
2023/10/25 02:58:23;;;;;;;12.10;4.30;;;8.60;99.90;;;;;;5070588;28;20295;-76
2023/10/25 03:00:49;;;;;;;7.23;4.07;;;8.70;99.90;;;;;;5071736;28;20259;-76
2023/10/25 03:03:14;;;;;;;7.73;4.00;;;8.70;99.90;;;;;;5071757;28;20194;-76
2023/10/25 03:05:40;;;;;;;4.47;3.67;;;8.60;99.90;;;;;;5072113;28;20195;-77
2023/10/25 03:08:05;;;;;;;9.93;3.97;;;8.70;99.90;;;;;;5072153;28;20202;-76
2023/10/25 03:10:31;;;;;;;9.43;3.97;;;8.70;99.90;;;;;;5068634;28;20175;-77
2023/10/25 03:12:56;;;;;;;8.20;4.20;;;8.70;99.90;;;;;;5071748;28;20530;-76
2023/10/25 03:15:22;;;;;;;9.27;4.33;;;8.70;99.90;;;;;;5070570;28;20198;-76
2023/10/25 03:17:47;;;;;;;8.30;3.67;;;8.70;99.90;;;;;;5071872;28;20254;-76
2023/10/25 03:20:13;;;;;;;7.53;3.80;;;8.80;99.90;;;;;;5072040;28;20171;-76
2023/10/25 03:22:38;;;;;;;11.13;3.77;;;8.80;99.90;;;;;;5071851;28;20646;-76
2023/10/25 03:25:04;;;;;;;7.83;3.37;;;8.80;99.90;;;;;;5070358;28;20236;-76
2023/10/25 03:27:30;;;;;;;7.97;3.10;;;8.80;99.90;;;;;;5080779;28;20193;-76
2023/10/25 03:29:55;;;;;;;6.57;3.03;;;8.80;99.90;;;;;;5091707;28;20189;-76
2023/10/25 03:32:21;;;;;;;4.90;3.10;;;8.80;99.90;;;;;;5092191;28;20642;-76
2023/10/25 03:34:50;;;;;;;9.27;3.57;;;8.80;99.90;;;;;;5091792;28;20207;-76
2023/10/25 03:37:15;;;;;;;6.50;3.00;;;8.80;99.90;;;;;;5090441;28;20733;-76
2023/10/25 03:39:41;;;;;;;8.13;2.60;;;8.90;99.90;;;;;;5092167;28;20185;-77
2023/10/25 03:42:06;;;;;;;8.00;2.90;;;9.00;99.90;;;;;;5089530;28;20170;-77
2023/10/25 03:44:32;;;;;;;4.33;2.70;;;8.90;99.90;;;;;;5092329;28;20208;-76
2023/10/25 03:46:58;;;;;;;4.30;2.40;;;8.90;99.90;;;;;;5095417;28;20193;-76
2023/10/25 03:49:24;;;;;;;7.97;2.50;;;8.90;99.90;;;;;;5095365;28;20162;-76
2023/10/25 03:51:50;;;;;;;8.43;2.67;;;8.90;99.90;;;;;;5095276;28;20676;-76
2023/10/25 03:54:15;;;;;;;7.93;2.60;;;8.90;99.90;;;;;;5095218;28;20194;-76
2023/10/25 03:56:42;;;;;;;7.90;2.23;;;8.90;99.90;;;;;;5095277;28;20162;-76
2023/10/25 03:59:08;;;;;;;6.33;2.30;;;8.90;99.90;;;;;;5092718;28;20170;-76
2023/10/25 04:01:34;;;;;;;6.93;2.30;;;8.80;99.90;;;;;;5095201;28;20186;-76
2023/10/25 04:03:59;;;;;;;2.83;2.20;;;8.90;99.90;;;;;;5094935;28;20269;-76
2023/10/25 04:06:25;;;;;;;5.83;2.30;;;8.90;99.90;;;;;;5093561;28;20186;-76
2023/10/25 04:08:50;;;;;;;7.30;2.23;;;8.90;99.90;;;;;;5095208;28;20304;-76
2023/10/25 04:11:16;;;;;;;7.73;2.50;;;8.90;99.90;;;;;;5094804;28;20259;-76
2023/10/25 04:13:42;;;;;;;9.37;2.07;;;8.90;99.90;;;;;;5092893;28;20257;-78
2023/10/25 04:16:09;;;;;;;4.80;2.00;;;8.90;99.90;;;;;;5093116;28;20677;-76
2023/10/25 04:18:35;;;;;;;5.67;2.00;;;9.00;99.90;;;;;;5094770;28;20197;-76
2023/10/25 04:21:01;;;;;;;4.83;2.20;;;8.90;99.90;;;;;;5094637;28;20188;-76
2023/10/25 04:23:29;;;;;;;7.63;1.90;;;8.90;99.90;;;;;;5094543;28;20292;-76
2023/10/25 04:26:04;;;;;;;5.07;1.90;;;8.90;99.90;;;;;;5094425;28;20265;-76
2023/10/25 04:28:30;;;;;;;3.70;1.80;;;8.90;99.90;;;;;;5094474;28;20238;-76
2023/10/25 04:30:56;;;;;;;7.70;1.97;;;9.00;99.90;;;;;;5080446;28;20187;-76
2023/10/25 04:33:21;;;;;;;6.53;2.00;;;9.00;99.90;;;;;;5072755;28;20619;-75
2023/10/25 04:35:47;;;;;;;6.80;2.00;;;9.00;99.90;;;;;;5072738;28;20675;-76
2023/10/25 04:38:12;;;;;;;5.20;2.00;;;9.00;99.90;;;;;;5072887;28;20167;-76
2023/10/25 04:40:38;;;;;;;8.37;1.80;;;9.00;99.90;;;;;;5072877;28;20182;-77
2023/10/25 04:43:03;;;;;;;9.63;1.90;;;9.00;99.90;;;;;;5072898;28;20194;-76
2023/10/25 04:45:29;;;;;;;6.67;1.90;;;9.00;99.90;;;;;;5072969;28;20681;-77
2023/10/25 04:47:55;;;;;;;10.93;2.10;;;9.00;99.90;;;;;;5074044;28;20489;-77
2023/10/25 04:50:21;;;;;;;7.90;2.13;;;9.00;99.90;;;;;;5076504;28;20261;-77
2023/10/25 04:52:47;;;;;;;4.90;2.17;;;9.10;99.90;;;;;;5094571;28;20678;-77
2023/10/25 04:55:13;;;;;;;4.50;1.90;;;9.10;99.90;;;;;;5094678;28;20689;-77
2023/10/25 04:57:39;;;;;;;5.00;2.00;;;9.10;99.90;;;;;;5093356;28;20185;-77
2023/10/25 05:00:09;;;;;;;10.17;2.53;;;9.10;99.90;;;;;;5095081;28;20178;-77
2023/10/25 05:02:40;;;;;;;8.57;2.73;;;9.10;99.90;;;;;;5094879;28;20542;-78
2023/10/25 05:05:07;;;;;;;5.50;2.40;;;9.10;99.90;;;;;;5078502;28;20554;-78
2023/10/25 05:07:37;;;;;;;5.87;2.23;;;9.10;99.90;;;;;;5074613;28;20249;-77
2023/10/25 05:10:07;;;;;;;7.03;2.30;;;9.10;99.90;;;;;;5073831;28;20672;-75
2023/10/25 05:12:44;;;;;;;6.07;2.20;;;9.10;99.90;;;;;;5072714;28;20703;-77
2023/10/25 05:15:14;;;;;;;4.93;2.03;;;9.20;99.90;;;;;;5073792;28;20222;-76
2023/10/25 05:17:41;;;;;;;5.83;2.30;;;9.10;99.90;;;;;;5073505;28;20167;-75
2023/10/25 05:20:08;;;;;;;6.53;2.33;;;9.20;99.90;;;;;;5072910;28;20174;-76
2023/10/25 05:22:35;;;;;;;5.13;2.40;;;9.20;99.90;;;;;;5074012;28;20649;-76
2023/10/25 05:25:02;;;;;;;7.97;2.33;;;9.20;99.90;;;;;;5074044;28;20290;-77
2023/10/25 05:27:28;;;;;;;6.57;2.47;;;9.20;99.90;;;;;;5073668;28;20171;-76
2023/10/25 05:29:54;;;;;;;4.20;2.53;;;9.20;99.90;;;;;;5072545;28;20673;-77
2023/10/25 05:32:20;;;;;;;8.40;2.23;;;9.20;99.90;;;;;;5072503;28;20174;-77
2023/10/25 05:34:48;;;;;;;9.83;2.70;;;9.20;99.90;;;;;;5073595;28;20283;-76
2023/10/25 05:37:15;;;;;;;9.83;2.37;;;9.20;99.90;;;;;;5071915;28;20182;-76
2023/10/25 05:39:42;;;;;;;6.00;2.40;;;9.20;99.90;;;;;;5072215;28;20167;-77
2023/10/25 05:42:08;;;;;;;4.57;2.50;;;9.20;99.90;;;;;;5083475;28;20185;-77
2023/10/25 05:44:34;;;;;;;7.47;2.53;;;9.20;99.90;;;;;;5093682;28;20198;-77
2023/10/25 05:46:59;;;;;;;7.63;2.93;;;9.20;99.90;;;;;;5093601;28;20179;-77
2023/10/25 05:49:25;;;;;;;6.07;2.70;;;9.20;99.90;;;;;;5093651;28;20186;-77
2023/10/25 05:51:51;;;;;;;5.60;2.40;;;9.20;99.90;;;;;;5093819;28;20170;-77
2023/10/25 05:54:17;;;;;;;5.97;2.50;;;9.20;99.90;;;;;;5090377;28;20619;-76
2023/10/25 05:56:43;;;;;;;7.20;3.10;;;9.20;99.90;;;;;;5071938;28;20262;-77
2023/10/25 05:59:09;;;;;;;7.00;2.80;;;9.20;99.90;;;;;;5073820;28;20187;-76
2023/10/25 06:01:43;;;;;;;6.60;2.97;;;9.20;99.90;;;;;;5073245;28;20536;-77
2023/10/25 06:04:11;;;;;;;8.63;2.90;;;9.20;99.90;;;;;;5071791;28;20286;-76
2023/10/25 06:06:40;;;;;;;6.67;2.90;;;9.20;99.90;;;;;;5073222;28;20175;-77
2023/10/25 06:09:06;;;;;;;7.73;2.67;;;9.20;99.90;;;;;;5071905;28;20179;-77
2023/10/25 06:11:32;;;;;;;7.40;2.70;;;9.20;99.90;;;;;;5083579;28;20566;-76
2023/10/25 06:13:58;;;;;;;7.10;2.97;;;9.20;99.90;;;;;;5093407;28;20261;-77
2023/10/25 06:16:23;;;;;;;4.40;2.70;;;9.20;99.90;;;;;;5093392;28;20694;-76
2023/10/25 06:18:49;;;;;;;8.57;2.80;;;9.20;99.90;;;;;;5093329;28;20203;-77
2023/10/25 06:21:14;;;;;;;5.47;2.60;;;9.20;99.90;;;;;;5093389;28;20174;-77
2023/10/25 06:23:40;;;;;;;7.73;2.80;;;9.20;99.90;;;;;;5090951;28;20289;-77
2023/10/25 06:26:05;;;;;;;8.50;2.77;;;9.20;99.90;;;;;;5092400;28;20247;-77
2023/10/25 06:28:35;;;;;;;4.47;2.73;;;9.20;99.90;;;;;;5093682;28;20193;-76
2023/10/25 06:31:00;;;;;;;7.07;3.07;;;9.20;99.90;;;;;;5092152;28;20204;-77
2023/10/25 06:33:26;;;;;;;5.63;2.73;;;9.20;99.90;;;;;;5093208;28;20186;-77
2023/10/25 06:35:51;;;;;;;6.03;2.87;;;9.20;99.90;;;;;;5092479;28;20674;-77
2023/10/25 06:38:17;;;;;;;6.57;2.57;;;9.20;99.90;;;;;;5092171;28;20178;-77
2023/10/25 06:40:44;;;;;;;5.23;2.87;;;9.20;99.90;;;;;;5095365;28;20178;-77
2023/10/25 06:43:10;;;;;;;4.23;2.40;;;9.30;99.90;;;;;;5099728;28;20166;-77
2023/10/25 06:45:36;;;;;;;4.53;2.30;;;9.30;99.90;;;;;;5095069;28;20166;-77
2023/10/25 06:48:01;;;;;;;5.43;2.40;;;9.30;99.90;;;;;;5093354;28;20178;-77
2023/10/25 06:50:27;;;;;;;6.90;2.43;;;9.30;99.90;;;;;;5093162;28;20280;-77
2023/10/25 06:52:53;;;;;;;7.53;2.20;;;9.30;99.90;;;;;;5083473;28;20564;-78
2023/10/25 06:55:19;;;;;;;7.10;2.17;;;9.30;99.90;;;;;;5071654;28;20206;-77
2023/10/25 06:57:46;;;;;;;5.37;2.30;;;9.30;99.90;;;;;;5073113;28;20179;-77
2023/10/25 07:00:12;;;;;;;6.93;2.03;;;9.40;99.90;;;;;;5073029;28;20562;-77
2023/10/25 07:02:52;;;;;;;5.50;2.10;;;9.40;99.90;;;;;;5071548;28;20206;-77
2023/10/25 07:05:19;;;;;;;4.23;1.83;;;9.40;99.90;;;;;;5071736;28;20673;-77
2023/10/25 07:07:49;;;;;;;9.10;2.30;;;9.40;99.90;;;;;;5073257;28;20199;-77
2023/10/25 07:10:15;;;;;;;6.03;2.07;;;9.40;99.90;;;;;;5072233;28;20559;-76
2023/10/25 07:12:41;;;;;;;4.57;2.23;;;9.40;99.90;;;;;;5072939;28;20175;-77
2023/10/25 07:15:07;;;;;;;5.10;1.73;;;9.50;99.90;;;;;;5071389;28;20233;-77
2023/10/25 07:17:33;;;;;;;5.70;2.00;;;9.40;99.90;;;;;;5071538;28;20179;-77
2023/10/25 07:19:58;;;;;;;5.77;2.10;;;9.50;99.90;;;;;;5073422;28;20220;-77
2023/10/25 07:22:27;;;;;;;6.03;2.17;;;9.50;99.90;;;;;;5076720;28;20647;-78
2023/10/25 07:24:52;;;;;;;7.77;1.77;;;9.50;99.90;;;;;;5076379;28;20194;-78
2023/10/25 07:27:18;;;;;;;6.37;1.70;;;9.50;99.90;;;;;;5078490;28;20545;-77
2023/10/25 07:29:43;;;;;;;6.00;1.70;;;9.50;99.90;;;;;;5076789;28;20194;-78
2023/10/25 07:32:09;;;;;;;5.23;1.70;;;9.60;99.90;;;;;;5077704;28;20256;-77
2023/10/25 07:34:34;;;;;;;6.10;1.80;;;9.60;99.90;;;;;;5077022;28;20671;-78
2023/10/25 07:37:00;;;;;;;5.67;1.87;;;9.60;99.90;;;;;;5078470;28;20246;-78
2023/10/25 07:39:26;;;;;;;5.43;1.70;;;9.70;99.90;;;;;;5077050;28;20590;-78
2023/10/25 07:41:51;;;;;;;3.53;1.40;;;9.70;99.90;;;;;;5095886;28;20692;-77
2023/10/25 07:44:17;;;;;;;6.00;1.33;;;9.70;99.90;;;;;;5098534;28;20190;-77
2023/10/25 07:46:42;;;;;;;4.93;1.40;;;9.70;99.90;;;;;;5098637;28;20232;-78
2023/10/25 07:49:08;;;;;;;8.63;1.47;;;9.80;99.90;;;;;;5098231;28;20167;-77
2023/10/25 07:51:36;;;;;;;7.90;1.50;;;9.80;99.90;;;;;;5097885;28;20193;-76
2023/10/25 07:54:01;;;;;;;3.30;1.53;;;9.80;99.90;;;;;;5098341;28;20183;-78
2023/10/25 07:56:27;;;;;;;10.83;1.60;;;9.80;99.90;;;;;;5096341;28;20229;-78
2023/10/25 07:58:52;;;;;;;5.07;1.60;;;9.80;99.90;;;;;;5098156;28;20167;-78
2023/10/25 08:01:18;;;;;;;5.37;1.40;;;9.80;99.90;;;;;;5098025;28;20167;-76
2023/10/25 08:03:44;;;;;;;4.27;1.53;;;9.90;99.90;;;;;;5097960;28;20182;-77
2023/10/25 08:06:10;;;;;;;3.97;1.67;;;9.90;99.90;;;;;;5096963;28;20177;-77
2023/10/25 08:08:35;;;;;;;3.10;1.33;;;9.90;99.90;;;;;;5097369;28;20198;-78
2023/10/25 08:11:03;;;;;;;4.50;1.40;;;10.00;99.90;;;;;;5095613;28;20573;-78
2023/10/25 08:13:29;;;;;;;4.47;1.30;;;10.00;99.90;;;;;;5098908;28;20614;-78
2023/10/25 08:15:59;;;;;;;6.33;1.43;;;10.00;99.90;;;;;;5098858;28;20229;-78
2023/10/25 08:18:31;;;;;;;5.63;1.47;;;10.00;99.90;;;;;;5096943;28;20171;-78
2023/10/25 08:20:57;;;;;;;6.70;1.27;;;10.10;99.90;;;;;;5098867;28;20170;-78
2023/10/25 08:23:23;;;;;;;3.17;1.13;;;10.00;99.90;;;;;;5097057;28;20201;-78
2023/10/25 08:25:50;;;;;;;3.07;1.30;;;10.10;99.90;;;;;;5097294;28;20213;-78
2023/10/25 08:28:16;;;;;;;3.33;1.57;;;10.10;99.90;;;;;;5084800;28;20178;-78
2023/10/25 08:30:42;;;;;;;4.77;1.20;;;10.20;99.90;;;;;;5078061;28;20173;-78
2023/10/25 08:33:07;;;;;;;5.70;1.60;;;10.20;99.90;;;;;;5076870;28;20178;-78
2023/10/25 08:35:33;;;;;;;5.40;1.43;;;10.30;99.90;;;;;;5078206;28;20334;-78
2023/10/25 08:37:59;;;;;;;4.07;1.40;;;10.30;99.90;;;;;;5080745;28;20183;-78
2023/10/25 08:40:25;;;;;;;3.67;1.53;;;10.30;99.90;;;;;;5078258;28;20262;-76
2023/10/25 08:42:51;;;;;;;5.23;1.40;;;10.40;99.90;;;;;;5075912;28;20171;-78
2023/10/25 08:45:16;;;;;;;5.33;1.23;;;10.40;99.90;;;;;;5078187;28;20230;-78
2023/10/25 08:47:43;;;;;;;4.40;1.70;;;10.50;99.90;;;;;;5078656;28;20178;-77
2023/10/25 08:50:10;;;;;;;4.13;1.20;;;10.60;99.90;;;;;;5078621;28;20220;-78
2023/10/25 08:52:41;;;;;;;5.80;1.50;;;10.60;99.90;;;;;;5082658;28;20182;-77
2023/10/25 08:55:09;;;;;;;4.07;1.40;;;10.70;99.90;;;;;;5081355;28;20265;-77
2023/10/25 08:57:36;;;;;;;7.80;1.50;;;10.70;99.90;;;;;;5075861;28;20262;-78
2023/10/25 09:00:07;;;;;;;4.37;1.30;;;10.80;99.90;;;;;;5077458;28;20543;-78
2023/10/25 09:02:38;;;;;;;3.77;1.60;;;10.80;99.90;;;;;;5077109;28;20588;-77
2023/10/25 09:05:08;;;;;;;2.53;1.30;;;10.80;99.90;;;;;;5075835;28;20702;-78
2023/10/25 09:07:36;;;;;;;2.60;1.27;;;10.90;99.90;;;;;;5088333;28;20475;-77
2023/10/25 09:10:17;;;;;;;4.00;1.40;;;10.90;99.90;;;;;;5097350;28;20185;-78
2023/10/25 09:12:45;;;;;;;5.23;1.37;;;10.90;99.90;;;;;;5078352;28;20214;-78
2023/10/25 09:15:10;;;;;;;3.77;1.50;;;10.90;99.90;;;;;;5077308;28;20206;-77
2023/10/25 09:17:36;;;;;;;5.17;1.27;;;10.90;99.90;;;;;;5077288;28;20175;-78
2023/10/25 09:20:06;;;;;;;4.00;1.13;;;10.90;99.90;;;;;;5075078;28;20179;-78
2023/10/25 09:22:31;;;;;;;1.80;1.00;;;10.90;99.90;;;;;;5075438;28;20174;-78
2023/10/25 09:24:59;;;;;;;6.43;1.17;;;11.00;99.90;;;;;;5081292;28;20202;-78
2023/10/25 09:27:24;;;;;;;5.07;1.13;;;11.00;99.90;;;;;;5099549;28;20178;-77
2023/10/25 09:29:50;;;;;;;3.13;1.10;;;11.00;99.90;;;;;;5095913;28;20193;-76
2023/10/25 09:32:18;;;;;;;3.17;1.50;;;11.00;99.90;;;;;;5094979;28;20218;-78
2023/10/25 09:34:45;;;;;;;2.27;1.10;;;11.00;99.90;;;;;;5094952;28;20274;-78
2023/10/25 09:37:12;;;;;;;2.53;1.00;;;11.00;99.90;;;;;;5096295;28;20201;-78
2023/10/25 09:39:38;;;;;;;7.87;1.03;;;11.00;99.90;;;;;;5095856;28;20239;-77
2023/10/25 09:42:12;;;;;;;4.97;1.57;;;11.00;99.90;;;;;;5075440;28;20175;-77
2023/10/25 09:44:50;;;;;;;1.93;1.20;;;11.00;99.90;;;;;;5074846;28;20200;-77
2023/10/25 09:47:18;;;;;;;1.93;0.90;;;11.00;99.90;;;;;;5075432;28;20187;-78
2023/10/25 09:49:44;;;;;;;3.70;1.43;;;11.00;99.90;;;;;;5075186;28;20258;-77
2023/10/25 09:52:19;;;;;;;3.63;1.67;;;11.00;99.90;;;;;;5075595;28;20179;-78
2023/10/25 09:54:51;;;;;;;6.67;1.50;;;11.00;99.90;;;;;;5074132;28;20238;-77
2023/10/25 09:57:17;;;;;;;5.43;1.30;;;11.00;99.90;;;;;;5073931;28;20190;-77
2023/10/25 09:59:45;;;;;;;4.97;1.73;;;11.00;99.90;;;;;;5073976;28;20183;-78
2023/10/25 10:02:36;;;;;;;3.30;1.97;;;11.00;99.90;;;;;;5074244;28;20185;-77
2023/10/25 10:05:09;;;;;;;4.13;1.70;;;11.00;99.90;;;;;;5075007;28;20260;-77
2023/10/25 10:07:41;;;;;;;5.47;1.77;;;11.00;99.90;;;;;;5075569;28;20254;-77
2023/10/25 10:10:25;;;;;;;2.67;1.43;;;11.00;99.90;;;;;;5074088;28;20181;-77
2023/10/25 10:12:51;;;;;;;3.87;1.77;;;11.00;99.90;;;;;;5074890;28;20673;-78
2023/10/25 10:15:19;;;;;;;3.73;1.40;;;11.00;99.90;;;;;;5075063;28;20199;-77
2023/10/25 10:17:45;;;;;;;5.80;1.80;;;11.00;99.90;;;;;;5075250;28;20194;-77
2023/10/25 10:20:28;;;;;;;1.97;1.20;;;11.00;99.90;;;;;;5075752;28;20635;-78
2023/10/25 10:23:07;;;;;;;3.80;1.40;;;11.00;99.90;;;;;;5075789;28;20248;-77
2023/10/25 10:25:47;;;;;;;4.20;1.20;;;11.00;99.90;;;;;;5075455;28;20550;-77
2023/10/25 10:28:14;;;;;;;3.77;1.20;;;11.00;99.90;;;;;;5074079;28;20316;-78
2023/10/25 10:30:40;;;;;;;4.07;1.10;;;11.10;99.90;;;;;;5075409;28;20167;-77
2023/10/25 10:33:11;;;;;;;2.43;1.10;;;11.10;99.90;;;;;;5073509;28;20555;-77
2023/10/25 10:35:49;;;;;;;2.17;1.10;;;11.00;99.90;;;;;;5075254;28;20209;-76
2023/10/25 10:38:14;;;;;;;2.17;1.13;;;11.10;99.90;;;;;;5075744;28;20194;-77
2023/10/25 10:40:40;;;;;;;4.20;1.50;;;11.10;99.90;;;;;;5076103;28;20599;-78
2023/10/25 10:43:07;;;;;;;4.50;1.40;;;11.10;99.90;;;;;;5073380;28;20202;-77
2023/10/25 10:45:33;;;;;;;4.80;1.60;;;11.10;99.90;;;;;;5075521;28;20175;-77
2023/10/25 10:48:21;;;;;;;3.17;1.53;;;11.10;99.90;;;;;;5073470;28;20179;-77
2023/10/25 10:50:49;;;;;;;7.83;2.20;;;11.10;99.90;;;;;;5074626;28;20688;-77
2023/10/25 10:53:15;;;;;;;6.40;1.60;;;11.10;99.90;;;;;;5075620;28;20221;-77
2023/10/25 10:55:41;;;;;;;3.10;1.73;;;11.10;99.90;;;;;;5079064;28;20735;-77
2023/10/25 10:58:07;;;;;;;6.10;1.80;;;11.10;99.90;;;;;;5079520;28;20173;-77
2023/10/25 11:00:33;;;;;;;2.83;1.60;;;11.10;99.90;;;;;;5079936;28;20185;-78
2023/10/25 11:03:04;;;;;;;3.87;1.90;;;11.10;99.90;;;;;;5080003;28;20190;-78
2023/10/25 11:05:31;;;;;;;3.60;1.70;;;11.10;99.90;;;;;;5079974;28;20156;-76
2023/10/25 11:07:57;;;;;;;2.47;1.30;;;11.10;99.90;;;;;;5080191;28;20231;-77
2023/10/25 11:10:22;;;;;;;5.93;1.60;;;11.10;99.90;;;;;;5078403;28;20265;-78
2023/10/25 11:12:48;;;;;;;3.57;1.90;;;11.20;99.90;;;;;;5077813;28;20179;-78
2023/10/25 11:15:14;;;;;;;4.43;1.83;;;11.20;99.90;;;;;;5078110;28;20213;-77
2023/10/25 11:17:40;;;;;;;3.83;1.57;;;11.20;99.90;;;;;;5079396;28;20535;-77
2023/10/25 11:20:06;;;;;;;5.20;1.90;;;11.10;99.90;;;;;;5078012;28;20177;-78
2023/10/25 11:22:32;;;;;;;3.70;1.80;;;11.20;99.90;;;;;;5079804;28;20658;-77
2023/10/25 11:24:59;;;;;;;2.97;1.77;;;11.10;99.90;;;;;;5078291;28;20206;-77
2023/10/25 11:27:35;;;;;;;3.00;1.70;;;11.20;99.90;;;;;;5079837;28;20605;-77
2023/10/25 11:30:01;;;;;;;3.03;1.90;;;11.20;99.90;;;;;;5079194;28;20202;-77
2023/10/25 11:32:30;;;;;;;2.20;1.67;;;11.20;99.90;;;;;;5079552;28;20183;-77
2023/10/25 11:34:59;;;;;;;2.93;1.87;;;11.20;99.90;;;;;;5079421;28;20199;-78
2023/10/25 11:37:39;;;;;;;6.37;1.60;;;11.20;99.90;;;;;;5079775;28;20171;-78
2023/10/25 11:40:06;;;;;;;7.23;2.23;;;11.20;99.90;;;;;;5079513;28;20162;-77
2023/10/25 11:42:33;;;;;;;4.40;1.60;;;11.20;99.90;;;;;;5078014;28;20248;-77
2023/10/25 11:44:59;;;;;;;3.93;1.83;;;11.20;99.90;;;;;;5078021;28;20568;-78
2023/10/25 11:47:26;;;;;;;4.57;1.90;;;11.20;99.90;;;;;;5078448;28;20223;-78
2023/10/25 11:49:54;;;;;;;2.80;1.70;;;11.20;99.90;;;;;;5079257;28;20183;-77
2023/10/25 11:52:21;;;;;;;4.20;2.10;;;11.20;99.90;;;;;;5078723;28;20175;-77
2023/10/25 11:54:47;;;;;;;2.77;1.90;;;11.20;99.90;;;;;;5078988;28;20348;-78
2023/10/25 11:57:13;;;;;;;3.03;1.87;;;11.20;99.90;;;;;;5077236;28;20205;-77
2023/10/25 11:59:38;;;;;;;3.27;1.70;;;11.20;99.90;;;;;;5079269;28;20163;-77
2023/10/25 12:02:04;;;;;;;2.27;1.63;;;11.20;99.90;;;;;;5079215;28;20167;-77
2023/10/25 12:04:29;;;;;;;4.20;1.80;;;11.20;99.90;;;;;;5077717;28;20195;-77
2023/10/25 12:06:55;;;;;;;3.20;1.80;;;11.20;99.90;;;;;;5076914;28;20175;-77
2023/10/25 12:09:20;;;;;;;3.00;1.83;;;11.20;99.90;;;;;;5077221;28;20167;-77
2023/10/25 12:11:46;;;;;;;3.90;1.97;;;11.20;99.90;;;;;;5076265;28;20178;-77
2023/10/25 12:14:11;;;;;;;3.37;1.80;;;11.20;99.90;;;;;;5074965;28;20217;-77
2023/10/25 12:16:37;;;;;;;5.27;2.30;;;11.20;99.90;;;;;;5083694;28;20206;-79
2023/10/25 12:19:02;;;;;;;2.43;2.13;;;11.20;99.90;;;;;;5082183;28;20225;-78
2023/10/25 12:21:29;;;;;;;3.27;1.97;;;11.20;99.90;;;;;;5084781;28;20247;-78
2023/10/25 12:23:54;;;;;;;2.73;1.90;;;11.20;99.90;;;;;;5082457;28;20211;-78
2023/10/25 12:26:20;;;;;;;8.20;2.30;;;11.20;99.90;;;;;;5084302;28;20254;-78
2023/10/25 12:28:46;;;;;;;4.43;2.40;;;11.20;99.90;;;;;;5084024;28;20198;-78
2023/10/25 12:31:11;;;;;;;3.53;2.23;;;11.20;99.90;;;;;;5085363;28;20172;-78
2023/10/25 12:33:37;;;;;;;3.60;2.00;;;11.20;99.90;;;;;;5084290;28;20198;-78
2023/10/25 12:36:03;;;;;;;5.93;2.00;;;11.20;99.90;;;;;;5084953;28;20210;-78
2023/10/25 12:38:29;;;;;;;3.40;2.10;;;11.20;99.90;;;;;;5085996;28;20511;-78
2023/10/25 12:40:54;;;;;;;3.83;2.30;;;11.20;99.90;;;;;;5084928;28;20241;-78
2023/10/25 12:43:20;;;;;;;3.30;2.30;;;11.20;99.90;;;;;;5085931;28;20239;-78
2023/10/25 12:45:45;;;;;;;3.93;2.23;;;11.20;99.90;;;;;;5084013;28;20197;-78
2023/10/25 12:48:11;;;;;;;3.23;2.20;;;11.20;99.90;;;;;;5084672;28;20183;-78
2023/10/25 12:50:36;;;;;;;3.80;2.13;;;11.20;99.90;;;;;;5085311;28;20270;-78